Flight Track Log - Related Links

Times and Time Zones

All times are in EDT time to prevent confusion due to time zone crossing. See the GJS3657 flight status page for this flight to view local times or setup timezone preferences in your user account.

Time Position Orientation Groundspeed Altitude Reporting Facility
EDT Latitude Longitude Course Direction KTS MPH feet Rate Location/Type
Sat 01:31:41 PM 42.0167 -87.9333 166° South 178 205 2,200  Level Chicago TRACON
Sat 01:32:41 PM 41.9833 -87.8667 124° Southeast 236 272 3,800 1,604 Climbing Chicago TRACON
Sat 01:33:22 PM 41.9475 -87.8133 132° Southeast 247 284 4,900 699 Climbing Chicago Center
Sat 01:34:00 PM 41.8012 -87.3987 153° Southeast  Level Estimated
Sat 01:34:24 PM 41.8711 -87.7844 164° South 280 322 5,000  Level Chicago Center
Sat 01:35:00 PM 41.7038 -87.4501 202° Southwest  Level FlightAware Approximate
Sat 01:35:26 PM 41.7942 -87.7703 172° South 282 325 5,200  Level Chicago Center
Sat 01:36:00 PM 41.6595 -87.3231 166° South  Level Estimated
Sat 01:36:27 PM 41.7167 -87.7583 173° South 285 328 8,000  Level Chicago Center
Sat 01:37:00 PM 41.6154 -87.1972 166° South  Level Estimated
Sat 01:37:29 PM 41.6425 -87.7233 161° South 301 346 10,300  Level Chicago Center
Sat 01:38:31 PM 41.5656 -87.6697 152° Southeast 311 358 12,400 2,081 Climbing Chicago Center
Sat 01:39:33 PM 41.4861 -87.6144 152° Southeast 319 367 14,600 1,887 Climbing Chicago Center
Sat 01:40:35 PM 41.3764 -87.5650 161° South 354 407 16,300 1,500 Climbing Chicago Center
Sat 01:41:37 PM 41.2756 -87.5383 169° South 375 432 17,700 1,317 Climbing Chicago Center
Sat 01:42:38 PM 41.1739 -87.4800 157° South 399 459 19,000 1,366 Climbing Chicago Center
Sat 01:43:40 PM 41.0667 -87.4225 158° South 413 475 20,500 1,694 Climbing Chicago Center
Sat 01:44:42 PM 40.9625 -87.3642 157° South 411 473 22,500 1,935 Climbing Chicago Center
Sat 01:45:44 PM 40.8625 -87.3072 157° South 400 460 24,500 1,694 Climbing Chicago Center
Sat 01:46:46 PM 40.7525 -87.2283 151° Southeast 388 447 26,000 1,122 Climbing Chicago Center
Sat 01:47:47 PM 40.6781 -87.1211 132° Southeast 397 457 26,800 829 Climbing Chicago Center
Sat 01:48:49 PM 40.5997 -87.0067 132° Southeast 414 476 27,700 823 Climbing Chicago Center
Sat 01:49:51 PM 40.5200 -86.8919 132° Southeast 424 488 28,500 774 Climbing Chicago Center
Sat 01:50:53 PM 40.4389 -86.7764 133° Southeast 431 496 29,300 823 Climbing Chicago Center
Sat 01:51:55 PM 40.3575 -86.6603 133° Southeast 433 498 30,200 780 Climbing Chicago Center
Sat 01:52:56 PM 40.2761 -86.5428 132° Southeast 435 501 30,900 976 Climbing Chicago Center
Sat 01:53:58 PM 40.1953 -86.4264 132° Southeast 433 498 32,200 1,403 Climbing Chicago Center
Sat 01:55:00 PM 40.1008 -86.2889 132° Southeast 424 488 33,800 1,592 Climbing Chicago Center
Sat 01:55:36 PM 40.0522 -86.2233 134° Southeast 415 478 34,800 866 Climbing Indianapolis Center
Sat 01:56:37 PM 39.9750 -86.1144 133° Southeast 407 468 35,200 439 Climbing Indianapolis Center
Sat 01:57:39 PM 39.8869 -86.0136 139° Southeast 420 483 35,700 581 Climbing Indianapolis Center
Sat 01:58:41 PM 39.7919 -85.9219 143° Southeast 420 483 36,400 634 Climbing Indianapolis Center
Sat 01:59:42 PM 39.6981 -85.8322 144° Southeast 416 479 37,000 293 Climbing Indianapolis Center
Sat 02:00:44 PM 39.6028 -85.7442 145° Southeast 418 481 37,000  Level Indianapolis Center
Sat 02:01:45 PM 39.5081 -85.6575 145° Southeast 417 480 37,000  Level Indianapolis Center
Sat 02:02:47 PM 39.4111 -85.5714 146° Southeast 421 484 37,000  Level Indianapolis Center
Sat 02:03:49 PM 39.3144 -85.4872 146° Southeast 420 483 37,000  Level Indianapolis Center
Sat 02:04:50 PM 39.2164 -85.4042 147° Southeast 421 484 37,000  Level Indianapolis Center
Sat 02:05:52 PM 39.1336 -85.2708 129° Southeast 404 465 37,000  Level Indianapolis Center
Sat 02:06:53 PM 39.1056 -85.1336 105° East 397 457 37,000  Level Indianapolis Center
Sat 02:07:55 PM 39.0756 -84.9961 106° East 399 459 37,000  Level Indianapolis Center
Sat 02:08:57 PM 39.0478 -84.8631 105° East 405 466 37,000  Level Indianapolis Center
Sat 02:09:58 PM 39.0181 -84.7219 105° East 406 467 37,000  Level Indianapolis Center
Sat 02:11:00 PM 38.9833 -84.5564 105° East 408 470 37,000  Level Indianapolis Center
Sat 02:12:01 PM 38.9525 -84.4158 106° East 407 468 37,000  Level Indianapolis Center
Sat 02:13:03 PM 38.9214 -84.2739 106° East 409 471 37,000  Level Indianapolis Center
Sat 02:14:05 PM 38.8906 -84.1319 106° East 409 471 37,000  Level Indianapolis Center
Sat 02:15:06 PM 38.8606 -83.9914 105° East 408 470 37,000  Level Indianapolis Center
Sat 02:16:08 PM 38.8297 -83.8494 106° East 409 471 37,000  Level Indianapolis Center
Sat 02:17:09 PM 38.7989 -83.7086 106° East 409 471 37,000  Level Indianapolis Center
Sat 02:18:11 PM 38.7672 -83.5672 106° East 410 472 37,000  Level Indianapolis Center
Sat 02:19:13 PM 38.7356 -83.4278 106° East 407 468 37,000  Level Indianapolis Center
Sat 02:20:14 PM 38.6983 -83.2628 106° East 409 471 37,000  Level Indianapolis Center
Sat 02:21:16 PM 38.6711 -83.1386 106° East 408 470 37,000  Level Indianapolis Center
Sat 02:22:17 PM 38.6364 -82.9869 106° East 405 466 37,000  Level Indianapolis Center
Sat 02:23:19 PM 38.6044 -82.8469 106° East 408 470 37,000 -97 Level Indianapolis Center
Sat 02:24:21 PM 38.5714 -82.7075 107° East 409 471 36,800 -683 Descending Indianapolis Center
Sat 02:25:22 PM 38.5394 -82.5697 106° East 406 467 35,600 -1,171 Descending Indianapolis Center
Sat 02:26:24 PM 38.5033 -82.4172 107° East 411 473 34,400 -1,122 Descending Indianapolis Center
Sat 02:27:25 PM 38.4703 -82.2772 107° East 412 474 33,300 -1,073 Descending Indianapolis Center
Sat 02:28:27 PM 38.4369 -82.1356 107° East 416 479 32,200 -1,065 Descending Indianapolis Center
Sat 02:29:29 PM 38.4028 -81.9933 107° East 422 486 31,100 -1,171 Descending Indianapolis Center
Sat 02:30:30 PM 38.3683 -81.8478 107° East 430 495 29,800 -1,512 Descending Indianapolis Center
Sat 02:31:32 PM 38.3336 -81.6647 104° East 448 516 28,000 -1,597 Descending Indianapolis Center
Sat 02:32:34 PM 38.3083 -81.5067 101° East 458 527 26,500 -1,463 Descending Indianapolis Center
Sat 02:33:35 PM 38.2822 -81.3464 102° East 466 536 25,000 -1,463 Descending Indianapolis Center
Sat 02:34:37 PM 38.2572 -81.1872 101° East 463 533 23,500 -968 Descending Indianapolis Center
Sat 02:35:39 PM 38.2319 -81.0300 102° East 457 526 23,000 -244 Descending Indianapolis Center
Sat 02:36:40 PM 38.2072 -80.8783 102° East 442 509 23,000  Level Indianapolis Center
Sat 02:37:42 PM 38.1769 -80.6975 102° East 437 503 23,000  Level Indianapolis Center
Sat 02:38:30 PM 38.1569 -80.5828 102° East 438 504 23,000  Level Washington Center
Sat 02:39:30 PM 38.1319 -80.4308 102° East 438 504 23,000 -347 Level Washington Center
Sat 02:40:31 PM 38.1067 -80.2786 102° East 438 504 22,300 -984 Descending Washington Center
Sat 02:41:32 PM 38.0811 -80.1344 103° East 432 497 21,000 -655 Descending Washington Center
Sat 02:42:30 PM 38.0608 -80.0042 101° East 420 483 21,000  Level Washington Center
Sat 02:43:30 PM 38.0350 -79.8550 102° East 420 483 21,000  Level Washington Center
Sat 02:44:31 PM 38.0108 -79.7086 102° East 420 483 21,000  Level Washington Center
Sat 02:45:31 PM 37.9847 -79.5594 102° East 420 483 21,000  Level Washington Center
Sat 02:46:32 PM 37.9581 -79.4106 103° East 425 489 21,000  Level Washington Center
Sat 02:47:32 PM 37.9281 -79.2433 103° East 435 501 21,000  Level Washington Center
Sat 02:48:30 PM 37.8989 -79.0944 104° East 435 501 21,000 -202 Level Washington Center
Sat 02:49:31 PM 37.8761 -78.9433 101° East 435 501 20,600 -1,574 Descending Washington Center
Sat 02:50:32 PM 37.8553 -78.7925 100° East 435 501 17,800 -2,471 Descending Washington Center
Sat 02:51:30 PM 37.8339 -78.6575 101° East 415 478 15,700 -2,237 Descending Washington Center
Sat 02:52:30 PM 37.8158 -78.5464 102° East 380 437 13,400 -2,033 Descending Washington Center
Sat 02:53:31 PM 37.7978 -78.4300 101° East 351 404 11,600 -1,488 Descending Washington Center
Sat 02:54:31 PM 37.7833 -78.3244 100° East 321 369 10,400 -1,289 Descending Washington Center
Sat 02:55:32 PM 37.7708 -78.2294 99° East 296 341 9,000 -694 Descending Washington Center
Sat 02:56:32 PM 37.7522 -78.1342 104° East 277 319 9,000  Level Washington Center
Sat 02:57:30 PM 37.7375 -78.0392 101° East 277 319 9,000  Level Washington Center
Sat 02:58:32 PM 37.7186 -77.9336 103° East 277 319 9,000 -600 Level Washington Center
Sat 02:59:30 PM 37.6975 -77.8383 106° East 277 319 7,800 -1,525 Descending Washington Center
Sat 03:00:30 PM 37.6825 -77.7436 101° East 277 319 6,000 -1,587 Descending Washington Center
Sat 03:01:31 PM 37.6656 -77.6511 103° East 277 319 4,600 -1,279 Descending Washington Center
Sat 03:02:32 PM 37.6481 -77.5642 104° East 261 300 3,400 -807 Descending Washington Center
Sat 03:03:30 PM 37.6139 -77.4925 121° Southeast 248 285 3,000 -414 Descending Washington Center

Login

Don't have an account? Register now (free) for customized features, flight alerts, and more!